Map

Track Data

SID SEASON NUMBER BASIN SUBBASIN NAME ISO_TIME NATURE LAT LON WMO_WIND WMO_PRES WMO_AGENCY TRACK_TYPE DIST2LAND LANDFALL IFLAG USA_AGENCY USA_ATCF_ID USA_LAT USA_LON USA_RECORD USA_STATUS USA_WIND USA_PRES USA_SSHS USA_R34_NE USA_R34_SE USA_R34_SW USA_R34_NW USA_R50_NE USA_R50_SE USA_R50_SW USA_R50_NW USA_R64_NE USA_R64_SE USA_R64_SW USA_R64_NW USA_POCI USA_ROCI USA_RMW USA_EYE TOKYO_LAT TOKYO_LON TOKYO_GRADE TOKYO_WIND TOKYO_PRES TOKYO_R50_DIR TOKYO_R50_LONG TOKYO_R50_SHORT TOKYO_R30_DIR TOKYO_R30_LONG TOKYO_R30_SHORT TOKYO_LAND CMA_LAT CMA_LON CMA_CAT CMA_WIND CMA_PRES HKO_LAT HKO_LON HKO_CAT HKO_WIND HKO_PRES NEWDELHI_LAT NEWDELHI_LON NEWDELHI_GRADE NEWDELHI_WIND NEWDELHI_PRES NEWDELHI_CI NEWDELHI_DP NEWDELHI_POCI REUNION_LAT REUNION_LON REUNION_TYPE REUNION_WIND REUNION_PRES REUNION_TNUM REUNION_CI REUNION_RMW REUNION_R34_NE REUNION_R34_SE REUNION_R34_SW REUNION_R34_NW REUNION_R50_NE REUNION_R50_SE REUNION_R50_SW REUNION_R50_NW REUNION_R64_NE REUNION_R64_SE REUNION_R64_SW REUNION_R64_NW BOM_LAT BOM_LON BOM_TYPE BOM_WIND BOM_PRES BOM_TNUM BOM_CI BOM_RMW BOM_R34_NE BOM_R34_SE BOM_R34_SW BOM_R34_NW BOM_R50_NE BOM_R50_SE BOM_R50_SW BOM_R50_NW BOM_R64_NE BOM_R64_SE BOM_R64_SW BOM_R64_NW BOM_ROCI BOM_POCI BOM_EYE BOM_POS_METHOD BOM_PRES_METHOD NADI_LAT NADI_LON NADI_CAT NADI_WIND NADI_PRES WELLINGTON_LAT WELLINGTON_LON WELLINGTON_WIND WELLINGTON_PRES DS824_LAT DS824_LON DS824_STAGE DS824_WIND DS824_PRES TD9636_LAT TD9636_LON TD9636_STAGE TD9636_WIND TD9636_PRES TD9635_LAT TD9635_LON TD9635_WIND TD9635_PRES TD9635_ROCI NEUMANN_LAT NEUMANN_LON NEUMANN_CLASS NEUMANN_WIND NEUMANN_PRES MLC_LAT MLC_LON MLC_CLASS MLC_WIND MLC_PRES USA_GUST BOM_GUST BOM_GUST_PER REUNION_GUST REUNION_GUST_PER USA_SEAHGT USA_SEARAD_NE USA_SEARAD_SE USA_SEARAD_SW USA_SEARAD_NW STORM_SPEED STORM_DIR
1948021S08178 1948 8 SP MM NOT_NAMED 1948-01-21 00:00:00 TS -8.00000 178.000 main 938 921 O________OO___ jtwc_sh SH061948 -8.00000 178.000 -1 -8.00000 178.000 TC -8.00000 178.000 2 9 238
1948021S08178 1948 8 SP MM NOT_NAMED 1948-01-21 03:00:00 TS -8.24913 177.598 main 927 903 P________PP___ SH061948 -8.25008 177.600 -1 -8.25008 177.600 TC -8.24723 177.594 2 9 238
1948021S08178 1948 8 SP MM NOT_NAMED 1948-01-21 06:00:00 TS -8.49847 177.197 main 907 893 O________OP___ jtwc_sh SH061948 -8.50000 177.200 -1 -8.50000 177.200 TC -8.49542 177.191 2 9 238
1948021S08178 1948 8 SP MM NOT_NAMED 1948-01-21 09:00:00 TS -8.74860 176.797 main 900 879 P________PP___ SH061948 -8.74996 176.800 -1 -8.74996 176.800 TC -8.74589 176.792 2 9 238
1948021S08178 1948 8 SP MM NOT_NAMED 1948-01-21 12:00:00 TS -9.00000 176.400 main 883 875 O________OO___ jtwc_sh SH061948 -9.00000 176.400 -1 -9.00000 176.400 TC -9.00000 176.400 2 9 238
1948021S08178 1948 8 SP MM NOT_NAMED 1948-01-21 15:00:00 TS -9.24364 176.005 main 879 861 P________PP___ SH061948 -9.23496 176.000 -1 -9.23496 176.000 TC -9.26101 176.016 2 9 237
1948021S08178 1948 8 SP MM NOT_NAMED 1948-01-21 18:00:00 TS -9.51321 175.610 main 865 846 O________OP___ jtwc_sh SH061948 -9.50000 175.600 -1 -9.50000 175.600 TC -9.53963 175.629 2 10 233
1948021S08178 1948 8 SP MM NOT_NAMED 1948-01-21 21:00:00 TS -9.82942 175.219 main 851 825 P________PP___ SH061948 -9.81990 175.215 -1 -9.81990 175.215 TC -9.84845 175.228 2 11 229
1948021S08178 1948 8 SP MM NOT_NAMED 1948-01-22 00:00:00 TS -10.2000 174.800 main 830 814 O________OO___ jtwc_sh SH061948 -10.2000 174.800 -1 -10.2000 174.800 TC -10.2000 174.800 2 12 228
1948021S08178 1948 8 SP MM NOT_NAMED 1948-01-22 03:00:00 TS -10.6271 174.310 main 819 804 P________PP___ SH061948 -10.6350 174.315 -1 -10.6350 174.315 TC -10.6112 174.301 2 13 228
1948021S08178 1948 8 SP MM NOT_NAMED 1948-01-22 06:00:00 TS -11.0876 173.793 main 806 777 O________OP___ jtwc_sh SH061948 -11.1000 173.800 -1 -11.1000 173.800 TC -11.0629 173.778 2 14 228
1948021S08178 1948 8 SP MM NOT_NAMED 1948-01-22 09:00:00 TS -11.5494 173.274 main 777 702 P________PP___ SH061948 -11.5575 173.277 -1 -11.5575 173.277 TC -11.5331 173.266 2 13 227
1948021S08178 1948 8 SP MM NOT_NAMED 1948-01-22 12:00:00 TS -12.0000 172.800 main 702 642 O________OO___ jtwc_sh SH061948 -12.0000 172.800 -1 -12.0000 172.800 TC -12.0000 172.800 2 12 224
1948021S08178 1948 8 SP MM NOT_NAMED 1948-01-22 15:00:00 TS -12.4024 172.418 main 642 593 P________PP___ SH061948 -12.3999 172.420 -1 -12.3999 172.420 TC -12.4074 172.416 2 11 221
1948021S08178 1948 8 SP MM NOT_NAMED 1948-01-22 18:00:00 TS -12.8040 172.094 main 593 545 O________OP___ jtwc_sh SH061948 -12.8000 172.100 -1 -12.8000 172.100 TC -12.8120 172.081 2 10 217
1948021S08178 1948 8 SP MM NOT_NAMED 1948-01-22 21:00:00 TS -13.2302 171.789 main 545 492 P________PP___ SH061948 -13.2274 171.792 -1 -13.2274 171.792 TC -13.2356 171.781 2 11 213
1948021S08178 1948 8 SP MM NOT_NAMED 1948-01-23 00:00:00 TS -13.7000 171.500 main 492 434 O________OO___ jtwc_sh SH061948 -13.7000 171.500 -1 -13.7000 171.500 TC -13.7000 171.500 2 12 210
1948021S08178 1948 8 SP MM NOT_NAMED 1948-01-23 03:00:00 TS -14.2249 171.186 main 434 372 P________PP___ SH061948 -14.2275 171.192 -1 -14.2275 171.192 TC -14.2198 171.174 2 13 208
1948021S08178 1948 8 SP MM NOT_NAMED 1948-01-23 06:00:00 TS -14.7942 170.889 main 372 316 O________OP___ jtwc_sh SH061948 -14.8000 170.900 -1 -14.8000 170.900 TC -14.7827 170.868 2 13 205
1948021S08178 1948 8 SP MM NOT_NAMED 1948-01-23 09:00:00 TS -15.3881 170.619 main 316 279 P________PP___ SH061948 -15.3925 170.627 -1 -15.3925 170.627 TC -15.3792 170.603 2 13 201
1948021S08178 1948 8 SP MM NOT_NAMED 1948-01-23 12:00:00 TS -16.0000 170.400 main 279 255 O________OO___ jtwc_sh SH061948 -16.0000 170.400 -1 -16.0000 170.400 TC -16.0000 170.400 2 13 199
1948021S08178 1948 8 SP MM NOT_NAMED 1948-01-23 15:00:00 TS -16.5683 170.203 main 255 246 P________PP___ SH061948 -16.5850 170.205 -1 -16.5850 170.205 TC -16.5349 170.199 2 12 194
1948021S08178 1948 8 SP MM NOT_NAMED 1948-01-23 18:00:00 TS -17.1682 170.091 main 253 253 O________OP___ jtwc_sh SH061948 -17.2000 170.100 -1 -17.2000 170.100 TC -17.1047 170.073 2 12 186
1948021S08178 1948 8 SP MM NOT_NAMED 1948-01-23 21:00:00 TS -17.8023 170.066 main 278 278 P________PP___ SH061948 -17.8174 170.068 -1 -17.8174 170.068 TC -17.7721 170.060 2 14 176
1948021S08178 1948 8 SP MM NOT_NAMED 1948-01-24 00:00:00 TS -18.6000 170.200 main 338 338 O________OO___ jtwc_sh SH061948 -18.6000 170.200 -1 -18.6000 170.200 TC -18.6000 170.200 2 19 167
1948021S08178 1948 8 SP MM NOT_NAMED 1948-01-24 03:00:00 TS -19.6749 170.514 main 449 432 P________PP___ SH061948 -19.6601 170.518 -1 -19.6601 170.518 TC -19.7046 170.507 2 25 162
1948021S08178 1948 8 SP MM NOT_NAMED 1948-01-24 06:00:00 TS -20.9202 170.991 main 438 431 O________OP___ jtwc_sh SH061948 -20.9000 171.000 -1 -20.9000 171.000 TC -20.9605 170.972 2 28 159
1948021S08178 1948 8 SP MM NOT_NAMED 1948-01-24 09:00:00 TS -22.2353 171.559 main 473 473 P________PP___ SH061948 -22.2225 171.562 -1 -22.2225 171.562 TC -22.2611 171.552 2 28 157
1948021S08178 1948 8 SP MM NOT_NAMED 1948-01-24 12:00:00 TS -23.5000 172.200 main 549 549 O________OO___ jtwc_sh SH061948 -23.5000 172.200 -1 -23.5000 172.200 TC -23.5000 172.200 2 26 153
1948021S08178 1948 8 SP MM NOT_NAMED 1948-01-24 15:00:00 TS -24.5719 172.845 main 644 644 P________PP___ SH061948 -24.5595 172.829 -1 -24.5595 172.829 TC -24.5968 172.876 2 24 149
1948021S08178 1948 8 SP MM NOT_NAMED 1948-01-24 18:00:00 TS -25.5228 173.523 main 750 750 O________OP___ jtwc_sh SH061948 -25.5000 173.500 -1 -25.5000 173.500 TC -25.5685 173.570 2 22 146
1948021S08178 1948 8 SP MM NOT_NAMED 1948-01-24 21:00:00 TS -26.4227 174.246 main 860 825 P________PP___ SH061948 -26.4060 174.230 -1 -26.4060 174.230 TC -26.4562 174.279 2 22 143
1948021S08178 1948 8 SP MM NOT_NAMED 1948-01-25 00:00:00 TS -27.3000 175.000 main 825 O________OO___ jtwc_sh SH061948 -27.3000 175.000 -1 -27.3000 175.000 TC -27.3000 175.000 2 22 143

Digital Typhoon Data and Search

About IBTrACS Database

This database is a web-friendly format of International Best Track Archive for Climate Stewardship (IBTrACS), a global best track data archive curated by NOAA dating back to 1842.

Updated: 2021-11-26